Portada
METAR-TAF:

METAR-TAF

Aeroports :

Bandar Abbas, Iran

latitud: 27-13N, longitud: 056-22E, altitud: 10 m

Observació

L'informe es va fer fa 28 minuts, a les 05:30 UTC
Vent 6 kt del Est/Nord-Est
Temperatura 22°C
Humitat 73%
Pressió 1014 hPa
Visibilitat: 7000 m
Cel ennuvolat a una alçada de 2500 ft

METAR: OIKB 210530Z 06006KT 7000 BKN025 22/17 Q1014 A2995

Hora: 09:28 (05:58 UTC)

Pronòstic

L'informe es va fer fa 6 hores i 58 minuts, a les 23:00 UTC
Pronòstic vàlid del 21 a les 00 UTC al 22 a les 06 UTC
Vent 6 kt del Nord-Est
Visibilitat: 7000 m
Temporalment
l' 21 a les 00 UTC al 21 a les 04 UTC
Visibilitat: 4000 m
calitja

TAF: OIKB 202300Z 2100/2206 05006KT 7000 NSC TEMPO 2100/2104 4000 HZ

Observacions i pronòstics meteorològics de més de 4000 aeroports (METAR i TAF).

Les estacions disponibles són els punts grocs i vermells al mapa.

Posi el ratolí al punt desitjat per veure el nom de l'estació.

Feu clic per veure les observacions i els pronòstics meteorològics.

Per canviar el mapa: feu clic els botons verds amb una creu de color negre per apropar; al botó verd amb un guió per allunyar la imatge; o en les fletxes verdes per a mapes adjacents.


METAR-TAF: